Pelham, NH

11:00 AM EST on January 30, 2015 (GMT -0500)
Independence Dr | Change Station
CLOSE
Current Station
Personal Weather Station
Location: Pelham, NH
Elevation: 180 ft
Nearby Weather Stations
Active Advisory: Winter Weather Advisory Active Notice: Public Information Statement

Elev 180 ft 42.74 °N, 71.34 °W | Updated 4 seconds ago

Overcast
Overcast
31.0 °F
Feels Like 31 °F
N
0.0
Wind Variable Wind from East
Gusts 0.0 mph

Today
High -- | Low -- °F
--% Chance of Precip.
Yesterday
High -- | Low -- °F
Precip. -- in
7:02 AM 4:55 PM
Waxing Gibbous, 83% visible
Pressure 30.55 in
Visibility 1.0 miles
Clouds Mostly Cloudy 200 ft
Mostly Cloudy 1500 ft
Overcast 3100 ft
Windchill 31 °F
Dew Point 29 °F
Humidity 93%
Rainfall 0.00 in
Snow Depth Not available.
UV 0.0 out of 12
Pollen .10 out of 12
Air Quality Not available.
Flu Activity Not available.
METAR KASH 301551Z 00000KT 1SM -SN BR BKN002 BKN015 OVC031 M03/M03 A2979 RMK AO2 T10271033 UPE31SNB31 P0000 SLP345 $

More Conditions Fewer Conditions

Pressure 30.55 in
Visibility 1.0 miles
Clouds Mostly Cloudy 200 ft
Mostly Cloudy 1500 ft
Overcast 3100 ft
Windchill 31 °F
Dew Point 29 °F
Humidity 93%
Rainfall 0.00 in
Snow Depth Not available.
UV 0.0 out of 12
Pollen .10 out of 12
Air Quality Not available.
Flu Activity Not available.
METAR KASH 301551Z 00000KT 1SM -SN BR BKN002 BKN015 OVC031 M03/M03 A2979 RMK AO2 T10271033 UPE31SNB31 P0000 SLP345 $

More Conditions Fewer Conditions

10-Day Weather Forecast

Almanac

Astronomy

Jan. 30, 2015 Rise Set
Actual Time
Civil Twilight
Nautical Twilight
Astronomical Twilight
Moon
Length of Visible Light
Length of Day
Tomorrow will be .
, % of the Moon is Illuminated

Today's Extremes

State Highs State Lows

Community

WunderPhotos

Upload Photos

1,791,800 photos uploaded!

WunderBlogs® & News

Nearby

Air Quality

  Air Quality AQ Index Pollutant
Not available.

Snow Depth

Station Depth Elevation

Earthquake Activity

City Distance Mag. Time & Date
Minimum magnitude displayed is 2.5.

Coastal Water Temperatures

Place Temperature

Nearby Weather Stations